sensor_id;sensor_type;location;lat;lon;timestamp;P1;durP1;ratioP1;P2;durP2;ratioP2
27722;SDS011;15123;-37.794;175.246;2022-11-11T00:02:13;2.67;;;0.55;;
27722;SDS011;15123;-37.794;175.246;2022-11-11T00:05:02;3.75;;;0.63;;
27722;SDS011;15123;-37.794;175.246;2022-11-11T00:07:51;6.78;;;1.20;;
27722;SDS011;15123;-37.794;175.246;2022-11-11T00:10:46;2.40;;;0.50;;
27722;SDS011;15123;-37.794;175.246;2022-11-11T00:13:36;3.67;;;0.60;;
27722;SDS011;15123;-37.794;175.246;2022-11-11T00:16:26;2.42;;;0.43;;
27722;SDS011;15123;-37.794;175.246;2022-11-11T00:19:35;3.28;;;0.50;;
27722;SDS011;15123;-37.794;175.246;2022-11-11T00:22:42;3.20;;;0.50;;
27722;SDS011;15123;-37.794;175.246;2022-11-11T00:25:52;2.03;;;0.50;;
27722;SDS011;15123;-37.794;175.246;2022-11-11T00:29:01;1.35;;;0.40;;
27722;SDS011;15123;-37.794;175.246;2022-11-11T00:31:50;1.77;;;0.40;;
27722;SDS011;15123;-37.794;175.246;2022-11-11T00:34:57;2.33;;;0.40;;
27722;SDS011;15123;-37.794;175.246;2022-11-11T00:38:07;1.20;;;0.30;;
27722;SDS011;15123;-37.794;175.246;2022-11-11T00:40:58;1.17;;;0.40;;
27722;SDS011;15123;-37.794;175.246;2022-11-11T00:43:48;2.05;;;0.40;;
27722;SDS011;15123;-37.794;175.246;2022-11-11T00:46:38;2.30;;;0.50;;
27722;SDS011;15123;-37.794;175.246;2022-11-11T00:49:45;2.33;;;0.50;;
27722;SDS011;15123;-37.794;175.246;2022-11-11T00:52:52;2.78;;;0.50;;
27722;SDS011;15123;-37.794;175.246;2022-11-11T00:55:41;3.60;;;0.60;;
27722;SDS011;15123;-37.794;175.246;2022-11-11T00:58:30;3.45;;;0.50;;
27722;SDS011;15123;-37.794;175.246;2022-11-11T01:01:19;2.00;;;0.50;;
27722;SDS011;15123;-37.794;175.246;2022-11-11T01:04:08;1.63;;;0.50;;
27722;SDS011;15123;-37.794;175.246;2022-11-11T01:06:57;2.75;;;0.70;;
27722;SDS011;15123;-37.794;175.246;2022-11-11T01:09:46;2.17;;;0.57;;
27722;SDS011;15123;-37.794;175.246;2022-11-11T01:12:36;2.42;;;0.50;;
27722;SDS011;15123;-37.794;175.246;2022-11-11T01:15:25;1.85;;;0.50;;
27722;SDS011;15123;-37.794;175.246;2022-11-11T01:18:15;2.53;;;0.40;;
27722;SDS011;15123;-37.794;175.246;2022-11-11T01:21:13;2.05;;;0.50;;
27722;SDS011;15123;-37.794;175.246;2022-11-11T01:24:09;2.33;;;0.50;;
27722;SDS011;15123;-37.794;175.246;2022-11-11T01:26:59;2.88;;;0.70;;
27722;SDS011;15123;-37.794;175.246;2022-11-11T01:29:48;2.20;;;0.45;;
27722;SDS011;15123;-37.794;175.246;2022-11-11T01:32:37;1.65;;;0.52;;
27722;SDS011;15123;-37.794;175.246;2022-11-11T01:35:26;3.47;;;0.60;;
27722;SDS011;15123;-37.794;175.246;2022-11-11T01:38:15;2.35;;;0.63;;
27722;SDS011;15123;-37.794;175.246;2022-11-11T01:41:05;2.17;;;0.50;;
27722;SDS011;15123;-37.794;175.246;2022-11-11T01:47:03;2.50;;;0.60;;
27722;SDS011;15123;-37.794;175.246;2022-11-11T01:49:57;2.65;;;0.80;;
27722;SDS011;15123;-37.794;175.246;2022-11-11T01:52:47;3.28;;;0.90;;
27722;SDS011;15123;-37.794;175.246;2022-11-11T01:55:36;4.50;;;1.00;;
27722;SDS011;15123;-37.794;175.246;2022-11-11T01:58:26;3.63;;;1.10;;
27722;SDS011;15123;-37.794;175.246;2022-11-11T02:01:15;3.70;;;0.90;;
27722;SDS011;15123;-37.794;175.246;2022-11-11T02:04:05;3.88;;;1.30;;
27722;SDS011;15123;-37.794;175.246;2022-11-11T02:07:13;4.47;;;1.00;;
27722;SDS011;15123;-37.794;175.246;2022-11-11T02:10:03;3.10;;;0.80;;
27722;SDS011;15123;-37.794;175.246;2022-11-11T02:12:53;3.38;;;1.00;;
27722;SDS011;15123;-37.794;175.246;2022-11-11T02:16:01;2.45;;;0.77;;
27722;SDS011;15123;-37.794;175.246;2022-11-11T02:18:50;3.53;;;0.80;;
27722;SDS011;15123;-37.794;175.246;2022-11-11T02:21:41;4.20;;;0.80;;
27722;SDS011;15123;-37.794;175.246;2022-11-11T02:24:34;3.25;;;0.90;;
27722;SDS011;15123;-37.794;175.246;2022-11-11T02:27:23;2.75;;;0.70;;
27722;SDS011;15123;-37.794;175.246;2022-11-11T02:30:14;3.05;;;0.80;;
27722;SDS011;15123;-37.794;175.246;2022-11-11T02:33:04;2.67;;;0.80;;
27722;SDS011;15123;-37.794;175.246;2022-11-11T02:35:54;3.13;;;0.90;;
27722;SDS011;15123;-37.794;175.246;2022-11-11T02:38:44;2.80;;;0.77;;
27722;SDS011;15123;-37.794;175.246;2022-11-11T02:41:33;2.40;;;0.60;;
27722;SDS011;15123;-37.794;175.246;2022-11-11T02:44:40;1.85;;;0.60;;
27722;SDS011;15123;-37.794;175.246;2022-11-11T02:47:30;2.75;;;0.80;;
27722;SDS011;15123;-37.794;175.246;2022-11-11T02:50:19;2.33;;;0.70;;
27722;SDS011;15123;-37.794;175.246;2022-11-11T02:53:08;2.35;;;0.63;;
27722;SDS011;15123;-37.794;175.246;2022-11-11T02:55:58;2.00;;;0.60;;
27722;SDS011;15123;-37.794;175.246;2022-11-11T02:58:47;1.92;;;0.60;;
27722;SDS011;15123;-37.794;175.246;2022-11-11T03:01:36;1.70;;;0.40;;
27722;SDS011;15123;-37.794;175.246;2022-11-11T03:04:26;2.30;;;0.55;;
27722;SDS011;15123;-37.794;175.246;2022-11-11T03:07:15;1.67;;;0.63;;
27722;SDS011;15123;-37.794;175.246;2022-11-11T03:10:04;2.53;;;0.60;;
27722;SDS011;15123;-37.794;175.246;2022-11-11T03:12:53;2.38;;;0.50;;
27722;SDS011;15123;-37.794;175.246;2022-11-11T03:15:43;1.92;;;0.50;;
27722;SDS011;15123;-37.794;175.246;2022-11-11T03:18:32;2.25;;;0.50;;
27722;SDS011;15123;-37.794;175.246;2022-11-11T03:21:21;1.95;;;0.60;;
27722;SDS011;15123;-37.794;175.246;2022-11-11T03:24:30;1.05;;;0.50;;
27722;SDS011;15123;-37.794;175.246;2022-11-11T03:27:40;1.00;;;0.40;;
27722;SDS011;15123;-37.794;175.246;2022-11-11T03:30:29;1.75;;;0.50;;
27722;SDS011;15123;-37.794;175.246;2022-11-11T03:33:18;1.58;;;0.50;;
27722;SDS011;15123;-37.794;175.246;2022-11-11T03:36:07;1.40;;;0.50;;
27722;SDS011;15123;-37.794;175.246;2022-11-11T03:38:57;1.35;;;0.50;;
27722;SDS011;15123;-37.794;175.246;2022-11-11T03:41:45;1.58;;;0.57;;
27722;SDS011;15123;-37.794;175.246;2022-11-11T03:44:34;2.25;;;0.40;;
27722;SDS011;15123;-37.794;175.246;2022-11-11T03:47:23;1.48;;;0.60;;
27722;SDS011;15123;-37.794;175.246;2022-11-11T03:50:13;1.63;;;0.50;;
27722;SDS011;15123;-37.794;175.246;2022-11-11T03:53:02;1.70;;;0.52;;
27722;SDS011;15123;-37.794;175.246;2022-11-11T03:55:51;1.27;;;0.50;;
27722;SDS011;15123;-37.794;175.246;2022-11-11T03:58:40;1.92;;;0.60;;
27722;SDS011;15123;-37.794;175.246;2022-11-11T04:01:29;1.67;;;0.55;;
27722;SDS011;15123;-37.794;175.246;2022-11-11T04:04:36;0.60;;;0.40;;
27722;SDS011;15123;-37.794;175.246;2022-11-11T04:07:43;1.73;;;0.60;;
27722;SDS011;15123;-37.794;175.246;2022-11-11T04:10:50;2.47;;;0.52;;
27722;SDS011;15123;-37.794;175.246;2022-11-11T04:13:39;1.55;;;0.55;;
27722;SDS011;15123;-37.794;175.246;2022-11-11T04:16:50;1.63;;;0.50;;
27722;SDS011;15123;-37.794;175.246;2022-11-11T04:19:38;1.25;;;0.40;;
27722;SDS011;15123;-37.794;175.246;2022-11-11T04:22:48;0.88;;;0.40;;
27722;SDS011;15123;-37.794;175.246;2022-11-11T04:25:40;1.95;;;0.52;;
27722;SDS011;15123;-37.794;175.246;2022-11-11T04:28:35;2.03;;;0.60;;
27722;SDS011;15123;-37.794;175.246;2022-11-11T04:31:43;1.15;;;0.50;;
27722;SDS011;15123;-37.794;175.246;2022-11-11T04:34:51;1.58;;;0.50;;
27722;SDS011;15123;-37.794;175.246;2022-11-11T04:37:47;1.05;;;0.50;;
27722;SDS011;15123;-37.794;175.246;2022-11-11T04:40:37;1.38;;;0.40;;
27722;SDS011;15123;-37.794;175.246;2022-11-11T04:43:44;1.73;;;0.50;;
27722;SDS011;15123;-37.794;175.246;2022-11-11T04:46:51;1.63;;;0.50;;
27722;SDS011;15123;-37.794;175.246;2022-11-11T04:49:41;1.80;;;0.40;;
27722;SDS011;15123;-37.794;175.246;2022-11-11T04:52:30;2.60;;;0.50;;
27722;SDS011;15123;-37.794;175.246;2022-11-11T04:55:20;3.55;;;0.80;;
27722;SDS011;15123;-37.794;175.246;2022-11-11T04:58:29;1.50;;;0.43;;
27722;SDS011;15123;-37.794;175.246;2022-11-11T05:01:19;2.17;;;0.50;;
27722;SDS011;15123;-37.794;175.246;2022-11-11T05:04:28;0.80;;;0.50;;
27722;SDS011;15123;-37.794;175.246;2022-11-11T05:07:17;1.35;;;0.35;;
27722;SDS011;15123;-37.794;175.246;2022-11-11T05:10:24;1.23;;;0.40;;
27722;SDS011;15123;-37.794;175.246;2022-11-11T05:13:13;2.95;;;0.47;;
27722;SDS011;15123;-37.794;175.246;2022-11-11T05:16:22;1.88;;;0.50;;
27722;SDS011;15123;-37.794;175.246;2022-11-11T05:19:30;1.55;;;0.50;;
27722;SDS011;15123;-37.794;175.246;2022-11-11T05:22:39;0.98;;;0.40;;
27722;SDS011;15123;-37.794;175.246;2022-11-11T05:25:28;1.45;;;0.40;;
27722;SDS011;15123;-37.794;175.246;2022-11-11T05:28:20;1.52;;;0.50;;
27722;SDS011;15123;-37.794;175.246;2022-11-11T05:31:09;1.00;;;0.50;;
27722;SDS011;15123;-37.794;175.246;2022-11-11T05:33:58;1.58;;;0.50;;
27722;SDS011;15123;-37.794;175.246;2022-11-11T05:36:48;1.80;;;0.52;;
27722;SDS011;15123;-37.794;175.246;2022-11-11T05:39:37;1.88;;;0.50;;
27722;SDS011;15123;-37.794;175.246;2022-11-11T05:42:26;1.33;;;0.45;;
27722;SDS011;15123;-37.794;175.246;2022-11-11T05:45:15;2.78;;;0.60;;
27722;SDS011;15123;-37.794;175.246;2022-11-11T05:48:05;1.45;;;0.43;;
27722;SDS011;15123;-37.794;175.246;2022-11-11T05:50:56;2.10;;;0.60;;
27722;SDS011;15123;-37.794;175.246;2022-11-11T05:53:45;2.40;;;0.68;;
27722;SDS011;15123;-37.794;175.246;2022-11-11T05:56:34;1.65;;;0.50;;
27722;SDS011;15123;-37.794;175.246;2022-11-11T05:59:23;1.63;;;0.50;;
27722;SDS011;15123;-37.794;175.246;2022-11-11T06:02:12;2.63;;;0.60;;
27722;SDS011;15123;-37.794;175.246;2022-11-11T06:05:02;2.13;;;0.50;;
27722;SDS011;15123;-37.794;175.246;2022-11-11T06:07:51;2.22;;;0.50;;
27722;SDS011;15123;-37.794;175.246;2022-11-11T06:10:41;3.25;;;0.80;;
27722;SDS011;15123;-37.794;175.246;2022-11-11T06:13:30;4.15;;;0.80;;
27722;SDS011;15123;-37.794;175.246;2022-11-11T06:16:19;4.20;;;0.80;;
27722;SDS011;15123;-37.794;175.246;2022-11-11T06:19:09;2.67;;;0.63;;
27722;SDS011;15123;-37.794;175.246;2022-11-11T06:21:58;3.22;;;0.70;;
27722;SDS011;15123;-37.794;175.246;2022-11-11T06:24:48;3.97;;;0.80;;
27722;SDS011;15123;-37.794;175.246;2022-11-11T06:27:56;2.05;;;0.50;;
27722;SDS011;15123;-37.794;175.246;2022-11-11T06:30:45;2.50;;;0.60;;
27722;SDS011;15123;-37.794;175.246;2022-11-11T06:33:36;2.85;;;0.70;;
27722;SDS011;15123;-37.794;175.246;2022-11-11T06:36:26;1.83;;;0.50;;
27722;SDS011;15123;-37.794;175.246;2022-11-11T06:39:15;3.10;;;0.60;;
27722;SDS011;15123;-37.794;175.246;2022-11-11T06:42:04;1.83;;;0.50;;
27722;SDS011;15123;-37.794;175.246;2022-11-11T06:44:53;1.92;;;0.60;;
27722;SDS011;15123;-37.794;175.246;2022-11-11T06:47:41;2.47;;;0.70;;
27722;SDS011;15123;-37.794;175.246;2022-11-11T06:50:31;4.50;;;1.00;;
27722;SDS011;15123;-37.794;175.246;2022-11-11T06:53:21;1.83;;;0.47;;
27722;SDS011;15123;-37.794;175.246;2022-11-11T06:56:11;2.90;;;0.63;;
27722;SDS011;15123;-37.794;175.246;2022-11-11T06:59:00;2.65;;;0.70;;
27722;SDS011;15123;-37.794;175.246;2022-11-11T07:01:49;2.53;;;0.57;;
27722;SDS011;15123;-37.794;175.246;2022-11-11T07:04:38;2.22;;;0.55;;
27722;SDS011;15123;-37.794;175.246;2022-11-11T07:07:29;2.13;;;0.50;;
27722;SDS011;15123;-37.794;175.246;2022-11-11T07:10:19;2.20;;;0.50;;
27722;SDS011;15123;-37.794;175.246;2022-11-11T07:13:08;2.90;;;0.70;;
27722;SDS011;15123;-37.794;175.246;2022-11-11T07:15:58;2.58;;;0.50;;
27722;SDS011;15123;-37.794;175.246;2022-11-11T07:18:47;2.00;;;0.50;;
27722;SDS011;15123;-37.794;175.246;2022-11-11T07:21:37;2.42;;;0.70;;
27722;SDS011;15123;-37.794;175.246;2022-11-11T07:24:26;1.98;;;0.50;;
27722;SDS011;15123;-37.794;175.246;2022-11-11T07:27:14;2.35;;;0.50;;
27722;SDS011;15123;-37.794;175.246;2022-11-11T07:30:04;2.25;;;0.60;;
27722;SDS011;15123;-37.794;175.246;2022-11-11T07:32:53;2.05;;;0.50;;
27722;SDS011;15123;-37.794;175.246;2022-11-11T07:35:43;2.15;;;0.47;;
27722;SDS011;15123;-37.794;175.246;2022-11-11T07:38:32;1.17;;;0.40;;
27722;SDS011;15123;-37.794;175.246;2022-11-11T07:41:21;2.03;;;0.60;;
27722;SDS011;15123;-37.794;175.246;2022-11-11T07:44:10;8.05;;;2.53;;
27722;SDS011;15123;-37.794;175.246;2022-11-11T07:46:59;6.88;;;2.13;;
27722;SDS011;15123;-37.794;175.246;2022-11-11T07:49:48;3.92;;;0.90;;
27722;SDS011;15123;-37.794;175.246;2022-11-11T07:52:37;2.35;;;0.60;;
27722;SDS011;15123;-37.794;175.246;2022-11-11T07:55:26;2.45;;;0.50;;
27722;SDS011;15123;-37.794;175.246;2022-11-11T07:58:15;1.98;;;0.50;;
27722;SDS011;15123;-37.794;175.246;2022-11-11T08:01:05;3.50;;;0.70;;
27722;SDS011;15123;-37.794;175.246;2022-11-11T08:03:54;2.33;;;0.43;;
27722;SDS011;15123;-37.794;175.246;2022-11-11T08:06:44;2.55;;;0.60;;
27722;SDS011;15123;-37.794;175.246;2022-11-11T08:09:33;2.13;;;0.50;;
27722;SDS011;15123;-37.794;175.246;2022-11-11T08:12:22;2.30;;;0.52;;
27722;SDS011;15123;-37.794;175.246;2022-11-11T08:15:29;1.88;;;0.40;;
27722;SDS011;15123;-37.794;175.246;2022-11-11T08:18:18;1.50;;;0.47;;
27722;SDS011;15123;-37.794;175.246;2022-11-11T08:21:07;0.60;;;0.30;;
27722;SDS011;15123;-37.794;175.246;2022-11-11T08:23:56;1.63;;;0.50;;
27722;SDS011;15123;-37.794;175.246;2022-11-11T08:27:06;0.82;;;0.22;;
27722;SDS011;15123;-37.794;175.246;2022-11-11T08:29:56;1.85;;;0.50;;
27722;SDS011;15123;-37.794;175.246;2022-11-11T08:32:45;1.10;;;0.43;;
27722;SDS011;15123;-37.794;175.246;2022-11-11T08:35:54;2.50;;;0.60;;
27722;SDS011;15123;-37.794;175.246;2022-11-11T08:38:46;1.92;;;0.60;;
27722;SDS011;15123;-37.794;175.246;2022-11-11T08:41:36;1.38;;;0.40;;
27722;SDS011;15123;-37.794;175.246;2022-11-11T08:44:25;1.25;;;0.40;;
27722;SDS011;15123;-37.794;175.246;2022-11-11T08:47:15;1.05;;;0.40;;
27722;SDS011;15123;-37.794;175.246;2022-11-11T08:50:04;0.98;;;0.40;;
27722;SDS011;15123;-37.794;175.246;2022-11-11T08:52:55;0.95;;;0.30;;
27722;SDS011;15123;-37.794;175.246;2022-11-11T08:55:45;2.65;;;0.40;;
27722;SDS011;15123;-37.794;175.246;2022-11-11T08:58:34;1.90;;;0.50;;
27722;SDS011;15123;-37.794;175.246;2022-11-11T09:01:23;1.58;;;0.40;;
27722;SDS011;15123;-37.794;175.246;2022-11-11T09:04:12;1.80;;;0.30;;
27722;SDS011;15123;-37.794;175.246;2022-11-11T09:07:24;1.10;;;0.30;;
27722;SDS011;15123;-37.794;175.246;2022-11-11T09:10:35;1.77;;;0.40;;
27722;SDS011;15123;-37.794;175.246;2022-11-11T09:13:24;1.30;;;0.40;;
27722;SDS011;15123;-37.794;175.246;2022-11-11T09:16:17;2.45;;;0.70;;
27722;SDS011;15123;-37.794;175.246;2022-11-11T09:19:06;3.95;;;1.20;;
27722;SDS011;15123;-37.794;175.246;2022-11-11T09:21:55;3.55;;;1.00;;
27722;SDS011;15123;-37.794;175.246;2022-11-11T09:24:45;2.63;;;0.70;;
27722;SDS011;15123;-37.794;175.246;2022-11-11T09:27:34;4.28;;;1.25;;
27722;SDS011;15123;-37.794;175.246;2022-11-11T09:30:23;3.08;;;0.90;;
27722;SDS011;15123;-37.794;175.246;2022-11-11T09:33:15;3.53;;;0.90;;
27722;SDS011;15123;-37.794;175.246;2022-11-11T09:36:06;4.00;;;0.90;;
27722;SDS011;15123;-37.794;175.246;2022-11-11T09:38:55;4.20;;;1.10;;
27722;SDS011;15123;-37.794;175.246;2022-11-11T09:51:15;4.72;;;1.40;;
27722;SDS011;15123;-37.794;175.246;2022-11-11T09:54:12;5.72;;;1.77;;
27722;SDS011;15123;-37.794;175.246;2022-11-11T09:57:11;5.32;;;1.58;;
27722;SDS011;15123;-37.794;175.246;2022-11-11T10:00:23;5.10;;;1.50;;
27722;SDS011;15123;-37.794;175.246;2022-11-11T10:03:19;4.22;;;1.30;;
27722;SDS011;15123;-37.794;175.246;2022-11-11T10:09:26;5.38;;;1.55;;
27722;SDS011;15123;-37.794;175.246;2022-11-11T10:12:32;5.93;;;1.63;;
27722;SDS011;15123;-37.794;175.246;2022-11-11T10:15:32;5.20;;;1.30;;
27722;SDS011;15123;-37.794;175.246;2022-11-11T10:21:31;5.20;;;1.23;;
27722;SDS011;15123;-37.794;175.246;2022-11-11T10:27:58;3.22;;;0.82;;
27722;SDS011;15123;-37.794;175.246;2022-11-11T10:30:49;3.50;;;0.90;;
27722;SDS011;15123;-37.794;175.246;2022-11-11T10:34:04;4.75;;;0.70;;
27722;SDS011;15123;-37.794;175.246;2022-11-11T10:37:00;2.30;;;0.50;;
27722;SDS011;15123;-37.794;175.246;2022-11-11T10:43:01;0.85;;;0.30;;
27722;SDS011;15123;-37.794;175.246;2022-11-11T10:58:30;0.93;;;0.30;;
27722;SDS011;15123;-37.794;175.246;2022-11-11T11:01:47;1.05;;;0.35;;
27722;SDS011;15123;-37.794;175.246;2022-11-11T11:08:33;1.55;;;0.40;;
27722;SDS011;15123;-37.794;175.246;2022-11-11T11:11:46;1.23;;;0.20;;
27722;SDS011;15123;-37.794;175.246;2022-11-11T11:14:44;1.90;;;0.30;;
27722;SDS011;15123;-37.794;175.246;2022-11-11T11:17:36;0.80;;;0.30;;
27722;SDS011;15123;-37.794;175.246;2022-11-11T11:20:35;1.35;;;0.35;;
27722;SDS011;15123;-37.794;175.246;2022-11-11T11:23:57;1.65;;;0.30;;
27722;SDS011;15123;-37.794;175.246;2022-11-11T11:26:46;1.27;;;0.30;;
27722;SDS011;15123;-37.794;175.246;2022-11-11T11:32:31;0.20;;;0.20;;
27722;SDS011;15123;-37.794;175.246;2022-11-11T11:35:54;0.88;;;0.30;;
27722;SDS011;15123;-37.794;175.246;2022-11-11T11:38:40;1.13;;;0.25;;
27722;SDS011;15123;-37.794;175.246;2022-11-11T11:51:17;1.58;;;0.30;;
27722;SDS011;15123;-37.794;175.246;2022-11-11T12:01:02;0.65;;;0.20;;
27722;SDS011;15123;-37.794;175.246;2022-11-11T12:10:26;2.63;;;0.40;;
27722;SDS011;15123;-37.794;175.246;2022-11-11T12:13:40;0.50;;;0.20;;
27722;SDS011;15123;-37.794;175.246;2022-11-11T12:26:10;1.30;;;0.30;;
27722;SDS011;15123;-37.794;175.246;2022-11-11T12:39:02;0.73;;;0.20;;
27722;SDS011;15123;-37.794;175.246;2022-11-11T12:42:32;1.33;;;0.30;;
27722;SDS011;15123;-37.794;175.246;2022-11-11T12:51:29;2.13;;;0.40;;
27722;SDS011;15123;-37.794;175.246;2022-11-11T13:00:29;0.85;;;0.20;;
27722;SDS011;15123;-37.794;175.246;2022-11-11T13:03:30;2.20;;;0.38;;
27722;SDS011;15123;-37.794;175.246;2022-11-11T13:06:57;1.35;;;0.30;;
27722;SDS011;15123;-37.794;175.246;2022-11-11T13:13:18;1.75;;;0.30;;
27722;SDS011;15123;-37.794;175.246;2022-11-11T13:16:14;1.27;;;0.30;;
27722;SDS011;15123;-37.794;175.246;2022-11-11T13:19:12;1.17;;;0.50;;
27722;SDS011;15123;-37.794;175.246;2022-11-11T13:22:32;1.85;;;0.40;;
27722;SDS011;15123;-37.794;175.246;2022-11-11T13:25:25;1.05;;;0.30;;
27722;SDS011;15123;-37.794;175.246;2022-11-11T13:28:28;1.50;;;0.30;;
27722;SDS011;15123;-37.794;175.246;2022-11-11T13:31:23;1.63;;;0.30;;
27722;SDS011;15123;-37.794;175.246;2022-11-11T13:34:23;1.88;;;0.45;;
27722;SDS011;15123;-37.794;175.246;2022-11-11T13:37:26;1.00;;;0.30;;
27722;SDS011;15123;-37.794;175.246;2022-11-11T13:43:33;0.77;;;0.20;;
27722;SDS011;15123;-37.794;175.246;2022-11-11T13:46:51;1.63;;;0.40;;
27722;SDS011;15123;-37.794;175.246;2022-11-11T13:52:54;1.48;;;0.30;;
27722;SDS011;15123;-37.794;175.246;2022-11-11T13:55:45;1.63;;;0.30;;
27722;SDS011;15123;-37.794;175.246;2022-11-11T13:58:39;1.17;;;0.30;;
27722;SDS011;15123;-37.794;175.246;2022-11-11T14:01:33;1.70;;;0.30;;
27722;SDS011;15123;-37.794;175.246;2022-11-11T14:04:28;1.83;;;0.40;;
27722;SDS011;15123;-37.794;175.246;2022-11-11T14:13:37;1.80;;;0.30;;
27722;SDS011;15123;-37.794;175.246;2022-11-11T14:25:25;2.00;;;0.40;;
27722;SDS011;15123;-37.794;175.246;2022-11-11T14:28:19;1.38;;;0.30;;
27722;SDS011;15123;-37.794;175.246;2022-11-11T14:40:40;1.52;;;0.30;;
27722;SDS011;15123;-37.794;175.246;2022-11-11T14:43:36;1.85;;;0.30;;
27722;SDS011;15123;-37.794;175.246;2022-11-11T14:46:27;0.90;;;0.30;;
27722;SDS011;15123;-37.794;175.246;2022-11-11T14:49:43;1.10;;;0.30;;
27722;SDS011;15123;-37.794;175.246;2022-11-11T14:52:34;1.08;;;0.30;;
27722;SDS011;15123;-37.794;175.246;2022-11-11T14:58:20;1.98;;;0.38;;
27722;SDS011;15123;-37.794;175.246;2022-11-11T15:04:01;1.02;;;0.30;;
27722;SDS011;15123;-37.794;175.246;2022-11-11T15:07:00;2.10;;;0.30;;
27722;SDS011;15123;-37.794;175.246;2022-11-11T15:16:24;1.90;;;0.30;;
27722;SDS011;15123;-37.794;175.246;2022-11-11T15:26:30;1.35;;;0.20;;
27722;SDS011;15123;-37.794;175.246;2022-11-11T15:32:35;0.52;;;0.20;;
27722;SDS011;15123;-37.794;175.246;2022-11-11T15:35:36;1.70;;;0.40;;
27722;SDS011;15123;-37.794;175.246;2022-11-11T15:38:56;1.42;;;0.20;;
27722;SDS011;15123;-37.794;175.246;2022-11-11T15:41:47;1.60;;;0.20;;
27722;SDS011;15123;-37.794;175.246;2022-11-11T15:44:37;1.42;;;0.30;;
27722;SDS011;15123;-37.794;175.246;2022-11-11T15:47:26;1.75;;;0.30;;
27722;SDS011;15123;-37.794;175.246;2022-11-11T15:53:19;1.35;;;0.30;;
27722;SDS011;15123;-37.794;175.246;2022-11-11T15:56:29;0.75;;;0.20;;
27722;SDS011;15123;-37.794;175.246;2022-11-11T15:59:24;0.82;;;0.30;;
27722;SDS011;15123;-37.794;175.246;2022-11-11T16:02:18;0.50;;;0.20;;
27722;SDS011;15123;-37.794;175.246;2022-11-11T16:05:23;1.55;;;0.28;;
27722;SDS011;15123;-37.794;175.246;2022-11-11T16:08:15;1.27;;;0.30;;
27722;SDS011;15123;-37.794;175.246;2022-11-11T16:11:10;1.42;;;0.30;;
27722;SDS011;15123;-37.794;175.246;2022-11-11T16:14:04;1.42;;;0.30;;
27722;SDS011;15123;-37.794;175.246;2022-11-11T16:16:54;1.15;;;0.22;;
27722;SDS011;15123;-37.794;175.246;2022-11-11T16:19:45;0.90;;;0.20;;
27722;SDS011;15123;-37.794;175.246;2022-11-11T16:22:34;2.00;;;0.30;;
27722;SDS011;15123;-37.794;175.246;2022-11-11T16:25:24;0.38;;;0.20;;
27722;SDS011;15123;-37.794;175.246;2022-11-11T16:28:14;0.90;;;0.20;;
27722;SDS011;15123;-37.794;175.246;2022-11-11T16:31:46;0.95;;;0.22;;
27722;SDS011;15123;-37.794;175.246;2022-11-11T16:37:19;0.57;;;0.20;;
27722;SDS011;15123;-37.794;175.246;2022-11-11T16:40:25;1.25;;;0.20;;
27722;SDS011;15123;-37.794;175.246;2022-11-11T16:46:14;2.38;;;0.40;;
27722;SDS011;15123;-37.794;175.246;2022-11-11T16:52:18;0.85;;;0.20;;
27722;SDS011;15123;-37.794;175.246;2022-11-11T16:55:10;3.03;;;0.40;;
27722;SDS011;15123;-37.794;175.246;2022-11-11T16:58:20;1.83;;;0.35;;
27722;SDS011;15123;-37.794;175.246;2022-11-11T17:01:10;1.90;;;0.35;;
27722;SDS011;15123;-37.794;175.246;2022-11-11T17:03:59;1.67;;;0.30;;
27722;SDS011;15123;-37.794;175.246;2022-11-11T17:06:50;2.10;;;0.45;;
27722;SDS011;15123;-37.794;175.246;2022-11-11T17:09:45;2.00;;;0.50;;
27722;SDS011;15123;-37.794;175.246;2022-11-11T17:12:35;1.55;;;0.60;;
27722;SDS011;15123;-37.794;175.246;2022-11-11T17:15:25;1.10;;;0.35;;
27722;SDS011;15123;-37.794;175.246;2022-11-11T17:18:14;1.23;;;0.30;;
27722;SDS011;15123;-37.794;175.246;2022-11-11T17:21:04;1.15;;;0.40;;
27722;SDS011;15123;-37.794;175.246;2022-11-11T17:23:53;1.75;;;0.40;;
27722;SDS011;15123;-37.794;175.246;2022-11-11T17:26:42;2.63;;;0.43;;
27722;SDS011;15123;-37.794;175.246;2022-11-11T17:29:31;3.05;;;0.60;;
27722;SDS011;15123;-37.794;175.246;2022-11-11T17:32:24;1.83;;;0.50;;
27722;SDS011;15123;-37.794;175.246;2022-11-11T17:35:13;3.03;;;0.70;;
27722;SDS011;15123;-37.794;175.246;2022-11-11T17:38:03;3.67;;;0.70;;
27722;SDS011;15123;-37.794;175.246;2022-11-11T17:40:52;2.70;;;0.68;;
27722;SDS011;15123;-37.794;175.246;2022-11-11T17:43:41;1.88;;;0.45;;
27722;SDS011;15123;-37.794;175.246;2022-11-11T17:46:30;3.35;;;0.73;;
27722;SDS011;15123;-37.794;175.246;2022-11-11T17:49:19;2.92;;;0.90;;
27722;SDS011;15123;-37.794;175.246;2022-11-11T17:52:29;2.60;;;0.60;;
27722;SDS011;15123;-37.794;175.246;2022-11-11T17:55:18;2.35;;;0.60;;
27722;SDS011;15123;-37.794;175.246;2022-11-11T17:58:08;1.75;;;0.47;;
27722;SDS011;15123;-37.794;175.246;2022-11-11T18:01:04;1.52;;;0.50;;
27722;SDS011;15123;-37.794;175.246;2022-11-11T18:03:54;3.03;;;0.50;;
27722;SDS011;15123;-37.794;175.246;2022-11-11T18:06:44;2.38;;;0.60;;
27722;SDS011;15123;-37.794;175.246;2022-11-11T18:09:33;2.15;;;0.57;;
27722;SDS011;15123;-37.794;175.246;2022-11-11T18:12:23;3.58;;;0.80;;
27722;SDS011;15123;-37.794;175.246;2022-11-11T18:15:12;5.20;;;0.75;;
27722;SDS011;15123;-37.794;175.246;2022-11-11T18:18:01;2.55;;;0.60;;
27722;SDS011;15123;-37.794;175.246;2022-11-11T18:20:49;2.45;;;0.43;;
27722;SDS011;15123;-37.794;175.246;2022-11-11T18:23:40;1.10;;;0.30;;
27722;SDS011;15123;-37.794;175.246;2022-11-11T18:26:34;1.20;;;0.38;;
27722;SDS011;15123;-37.794;175.246;2022-11-11T18:29:24;0.90;;;0.30;;
27722;SDS011;15123;-37.794;175.246;2022-11-11T18:32:13;2.83;;;0.47;;
27722;SDS011;15123;-37.794;175.246;2022-11-11T18:35:02;1.55;;;0.30;;
27722;SDS011;15123;-37.794;175.246;2022-11-11T18:37:51;0.80;;;0.30;;
27722;SDS011;15123;-37.794;175.246;2022-11-11T18:40:40;1.35;;;0.32;;
27722;SDS011;15123;-37.794;175.246;2022-11-11T18:43:32;1.27;;;0.30;;
27722;SDS011;15123;-37.794;175.246;2022-11-11T18:46:23;1.48;;;0.30;;
27722;SDS011;15123;-37.794;175.246;2022-11-11T18:49:13;1.77;;;0.40;;
27722;SDS011;15123;-37.794;175.246;2022-11-11T18:52:02;1.45;;;0.40;;
27722;SDS011;15123;-37.794;175.246;2022-11-11T18:54:51;2.00;;;0.40;;
27722;SDS011;15123;-37.794;175.246;2022-11-11T18:57:40;5.22;;;0.40;;
27722;SDS011;15123;-37.794;175.246;2022-11-11T19:00:29;0.70;;;0.30;;
27722;SDS011;15123;-37.794;175.246;2022-11-11T19:03:18;1.30;;;0.30;;
27722;SDS011;15123;-37.794;175.246;2022-11-11T19:06:08;2.63;;;0.40;;
27722;SDS011;15123;-37.794;175.246;2022-11-11T19:08:58;1.65;;;0.38;;
27722;SDS011;15123;-37.794;175.246;2022-11-11T19:11:55;1.00;;;0.30;;
27722;SDS011;15123;-37.794;175.246;2022-11-11T19:14:44;1.88;;;0.50;;
27722;SDS011;15123;-37.794;175.246;2022-11-11T19:17:33;2.03;;;0.40;;
27722;SDS011;15123;-37.794;175.246;2022-11-11T19:20:22;1.90;;;0.47;;
27722;SDS011;15123;-37.794;175.246;2022-11-11T19:23:11;1.33;;;0.47;;
27722;SDS011;15123;-37.794;175.246;2022-11-11T19:26:00;2.13;;;0.60;;
27722;SDS011;15123;-37.794;175.246;2022-11-11T19:28:50;2.75;;;0.70;;
27722;SDS011;15123;-37.794;175.246;2022-11-11T19:31:39;2.35;;;0.80;;